sensor_id;sensor_type;location;lat;lon;timestamp;P1;durP1;ratioP1;P2;durP2;ratioP2
65552;SDS011;52465;51.560;14.368;2023-06-22T00:01:28;5.50;;;5.00;;
65552;SDS011;52465;51.560;14.368;2023-06-22T00:03:54;5.78;;;5.38;;
65552;SDS011;52465;51.560;14.368;2023-06-22T00:06:20;5.47;;;5.03;;
65552;SDS011;52465;51.560;14.368;2023-06-22T00:08:46;5.82;;;5.40;;
65552;SDS011;52465;51.560;14.368;2023-06-22T00:11:12;5.57;;;5.18;;
65552;SDS011;52465;51.560;14.368;2023-06-22T00:13:38;5.95;;;5.50;;
65552;SDS011;52465;51.560;14.368;2023-06-22T00:16:05;5.70;;;5.10;;
65552;SDS011;52465;51.560;14.368;2023-06-22T00:18:30;6.18;;;5.68;;
65552;SDS011;52465;51.560;14.368;2023-06-22T00:20:57;5.82;;;5.32;;
65552;SDS011;52465;51.560;14.368;2023-06-22T00:23:25;5.43;;;5.03;;
65552;SDS011;52465;51.560;14.368;2023-06-22T00:25:51;5.60;;;5.20;;
65552;SDS011;52465;51.560;14.368;2023-06-22T00:28:17;6.03;;;5.53;;
65552;SDS011;52465;51.560;14.368;2023-06-22T00:30:44;5.50;;;5.10;;
65552;SDS011;52465;51.560;14.368;2023-06-22T00:33:11;5.50;;;5.10;;
65552;SDS011;52465;51.560;14.368;2023-06-22T00:35:37;5.57;;;5.18;;
65552;SDS011;52465;51.560;14.368;2023-06-22T00:38:03;6.15;;;5.65;;
65552;SDS011;52465;51.560;14.368;2023-06-22T00:40:30;5.53;;;5.13;;
65552;SDS011;52465;51.560;14.368;2023-06-22T00:42:58;6.15;;;5.65;;
65552;SDS011;52465;51.560;14.368;2023-06-22T00:45:24;5.93;;;5.43;;
65552;SDS011;52465;51.560;14.368;2023-06-22T00:47:58;5.97;;;5.47;;
65552;SDS011;52465;51.560;14.368;2023-06-22T00:50:37;5.88;;;5.38;;
65552;SDS011;52465;51.560;14.368;2023-06-22T00:53:04;5.97;;;5.47;;
65552;SDS011;52465;51.560;14.368;2023-06-22T00:56:26;6.35;;;5.75;;
65552;SDS011;52465;51.560;14.368;2023-06-22T00:58:55;6.05;;;5.55;;
65552;SDS011;52465;51.560;14.368;2023-06-22T01:01:23;5.47;;;5.07;;
65552;SDS011;52465;51.560;14.368;2023-06-22T01:03:50;5.88;;;5.40;;
65552;SDS011;52465;51.560;14.368;2023-06-22T01:06:19;5.97;;;5.55;;
65552;SDS011;52465;51.560;14.368;2023-06-22T01:10:08;5.60;;;5.10;;
65552;SDS011;52465;51.560;14.368;2023-06-22T01:13:35;5.97;;;5.53;;
65552;SDS011;52465;51.560;14.368;2023-06-22T01:16:20;5.85;;;5.35;;
65552;SDS011;52465;51.560;14.368;2023-06-22T01:18:52;5.75;;;5.28;;
65552;SDS011;52465;51.560;14.368;2023-06-22T01:21:23;5.80;;;5.38;;
65552;SDS011;52465;51.560;14.368;2023-06-22T01:23:59;6.13;;;5.63;;
65552;SDS011;52465;51.560;14.368;2023-06-22T01:29:58;6.03;;;5.57;;
65552;SDS011;52465;51.560;14.368;2023-06-22T01:32:28;5.80;;;5.30;;
65552;SDS011;52465;51.560;14.368;2023-06-22T01:34:57;5.90;;;5.50;;
65552;SDS011;52465;51.560;14.368;2023-06-22T01:37:26;6.10;;;5.60;;
65552;SDS011;52465;51.560;14.368;2023-06-22T01:39:54;6.13;;;5.63;;
65552;SDS011;52465;51.560;14.368;2023-06-22T01:42:23;5.90;;;5.40;;
65552;SDS011;52465;51.560;14.368;2023-06-22T01:44:52;6.07;;;5.57;;
65552;SDS011;52465;51.560;14.368;2023-06-22T01:47:20;5.78;;;5.28;;
65552;SDS011;52465;51.560;14.368;2023-06-22T01:49:47;5.55;;;5.15;;
65552;SDS011;52465;51.560;14.368;2023-06-22T01:52:14;5.88;;;5.45;;
65552;SDS011;52465;51.560;14.368;2023-06-22T01:54:41;5.50;;;5.10;;
65552;SDS011;52465;51.560;14.368;2023-06-22T01:57:07;5.97;;;5.53;;
65552;SDS011;52465;51.560;14.368;2023-06-22T01:59:37;6.07;;;5.57;;
65552;SDS011;52465;51.560;14.368;2023-06-22T02:02:15;5.68;;;5.28;;
65552;SDS011;52465;51.560;14.368;2023-06-22T02:04:51;5.82;;;5.40;;
65552;SDS011;52465;51.560;14.368;2023-06-22T02:07:23;6.25;;;5.63;;
65552;SDS011;52465;51.560;14.368;2023-06-22T02:09:49;5.95;;;5.45;;
65552;SDS011;52465;51.560;14.368;2023-06-22T02:12:21;6.30;;;5.80;;
65552;SDS011;52465;51.560;14.368;2023-06-22T02:14:50;6.03;;;5.60;;
65552;SDS011;52465;51.560;14.368;2023-06-22T02:17:17;5.97;;;5.47;;
65552;SDS011;52465;51.560;14.368;2023-06-22T02:19:43;6.20;;;5.70;;
65552;SDS011;52465;51.560;14.368;2023-06-22T02:22:09;6.53;;;5.93;;
65552;SDS011;52465;51.560;14.368;2023-06-22T02:24:35;6.10;;;5.60;;
65552;SDS011;52465;51.560;14.368;2023-06-22T02:27:01;5.53;;;5.13;;
65552;SDS011;52465;51.560;14.368;2023-06-22T02:30:56;5.68;;;5.28;;
65552;SDS011;52465;51.560;14.368;2023-06-22T02:33:22;5.70;;;5.20;;
65552;SDS011;52465;51.560;14.368;2023-06-22T02:35:47;6.22;;;5.72;;
65552;SDS011;52465;51.560;14.368;2023-06-22T02:38:15;5.85;;;5.40;;
65552;SDS011;52465;51.560;14.368;2023-06-22T02:40:40;5.93;;;5.53;;
65552;SDS011;52465;51.560;14.368;2023-06-22T02:43:06;6.05;;;5.55;;
65552;SDS011;52465;51.560;14.368;2023-06-22T02:45:32;5.85;;;5.35;;
65552;SDS011;52465;51.560;14.368;2023-06-22T02:47:58;6.07;;;5.57;;
65552;SDS011;52465;51.560;14.368;2023-06-22T02:50:25;5.93;;;5.50;;
65552;SDS011;52465;51.560;14.368;2023-06-22T02:52:52;6.40;;;5.80;;
65552;SDS011;52465;51.560;14.368;2023-06-22T02:55:18;5.93;;;5.43;;
65552;SDS011;52465;51.560;14.368;2023-06-22T02:57:47;6.00;;;5.50;;
65552;SDS011;52465;51.560;14.368;2023-06-22T03:00:15;6.18;;;5.68;;
65552;SDS011;52465;51.560;14.368;2023-06-22T03:02:52;5.72;;;5.22;;
65552;SDS011;52465;51.560;14.368;2023-06-22T03:05:19;6.25;;;5.80;;
65552;SDS011;52465;51.560;14.368;2023-06-22T03:07:44;6.28;;;5.68;;
65552;SDS011;52465;51.560;14.368;2023-06-22T03:10:12;6.38;;;5.88;;
65552;SDS011;52465;51.560;14.368;2023-06-22T03:12:39;6.18;;;5.68;;
65552;SDS011;52465;51.560;14.368;2023-06-22T03:15:07;6.15;;;5.65;;
65552;SDS011;52465;51.560;14.368;2023-06-22T03:17:34;6.30;;;5.80;;
65552;SDS011;52465;51.560;14.368;2023-06-22T03:20:01;5.80;;;5.40;;
65552;SDS011;52465;51.560;14.368;2023-06-22T03:22:35;6.20;;;5.70;;
65552;SDS011;52465;51.560;14.368;2023-06-22T03:25:01;6.38;;;5.82;;
65552;SDS011;52465;51.560;14.368;2023-06-22T03:27:28;6.03;;;5.53;;
65552;SDS011;52465;51.560;14.368;2023-06-22T03:29:56;6.35;;;5.85;;
65552;SDS011;52465;51.560;14.368;2023-06-22T03:32:25;6.40;;;5.90;;
65552;SDS011;52465;51.560;14.368;2023-06-22T03:34:55;6.20;;;5.70;;
65552;SDS011;52465;51.560;14.368;2023-06-22T03:37:25;6.10;;;5.60;;
65552;SDS011;52465;51.560;14.368;2023-06-22T03:39:51;5.97;;;5.55;;
65552;SDS011;52465;51.560;14.368;2023-06-22T03:42:17;6.22;;;5.72;;
65552;SDS011;52465;51.560;14.368;2023-06-22T03:44:43;5.82;;;5.43;;
65552;SDS011;52465;51.560;14.368;2023-06-22T03:47:09;6.55;;;6.05;;
65552;SDS011;52465;51.560;14.368;2023-06-22T03:49:35;6.13;;;5.63;;
65552;SDS011;52465;51.560;14.368;2023-06-22T03:52:02;6.20;;;5.70;;
65552;SDS011;52465;51.560;14.368;2023-06-22T03:54:29;6.00;;;5.50;;
65552;SDS011;52465;51.560;14.368;2023-06-22T03:56:59;6.32;;;5.82;;
65552;SDS011;52465;51.560;14.368;2023-06-22T03:59:30;5.97;;;5.57;;
65552;SDS011;52465;51.560;14.368;2023-06-22T04:01:58;6.38;;;5.88;;
65552;SDS011;52465;51.560;14.368;2023-06-22T04:04:24;6.40;;;5.88;;
65552;SDS011;52465;51.560;14.368;2023-06-22T04:06:51;6.28;;;5.78;;
65552;SDS011;52465;51.560;14.368;2023-06-22T04:09:17;5.88;;;5.47;;
65552;SDS011;52465;51.560;14.368;2023-06-22T04:13:53;6.30;;;5.80;;
65552;SDS011;52465;51.560;14.368;2023-06-22T04:16:19;6.65;;;6.15;;
65552;SDS011;52465;51.560;14.368;2023-06-22T04:18:45;6.20;;;5.70;;
65552;SDS011;52465;51.560;14.368;2023-06-22T04:21:12;7.07;;;6.40;;
65552;SDS011;52465;51.560;14.368;2023-06-22T04:23:38;6.60;;;6.07;;
65552;SDS011;52465;51.560;14.368;2023-06-22T04:26:04;6.45;;;5.95;;
65552;SDS011;52465;51.560;14.368;2023-06-22T04:28:31;6.28;;;5.78;;
65552;SDS011;52465;51.560;14.368;2023-06-22T04:31:01;6.50;;;6.00;;
65552;SDS011;52465;51.560;14.368;2023-06-22T04:33:28;6.70;;;6.20;;
65552;SDS011;52465;51.560;14.368;2023-06-22T04:36:05;6.53;;;6.03;;
65552;SDS011;52465;51.560;14.368;2023-06-22T04:38:31;6.40;;;5.90;;
65552;SDS011;52465;51.560;14.368;2023-06-22T04:40:58;6.45;;;5.95;;
65552;SDS011;52465;51.560;14.368;2023-06-22T04:43:29;6.65;;;6.15;;
65552;SDS011;52465;51.560;14.368;2023-06-22T04:46:03;6.30;;;5.80;;
65552;SDS011;52465;51.560;14.368;2023-06-22T04:48:30;6.78;;;6.28;;
65552;SDS011;52465;51.560;14.368;2023-06-22T04:51:03;6.45;;;5.95;;
65552;SDS011;52465;51.560;14.368;2023-06-22T04:53:31;6.32;;;5.82;;
65552;SDS011;52465;51.560;14.368;2023-06-22T04:55:57;6.97;;;6.47;;
65552;SDS011;52465;51.560;14.368;2023-06-22T05:00:30;6.60;;;6.10;;
65552;SDS011;52465;51.560;14.368;2023-06-22T05:02:56;6.88;;;6.38;;
65552;SDS011;52465;51.560;14.368;2023-06-22T05:07:11;6.70;;;6.10;;
65552;SDS011;52465;51.560;14.368;2023-06-22T05:09:36;6.53;;;5.97;;
65552;SDS011;52465;51.560;14.368;2023-06-22T05:12:03;6.35;;;5.85;;
65552;SDS011;52465;51.560;14.368;2023-06-22T05:14:31;6.72;;;6.22;;
65552;SDS011;52465;51.560;14.368;2023-06-22T05:16:57;6.53;;;5.93;;
65552;SDS011;52465;51.560;14.368;2023-06-22T05:20:17;6.60;;;6.05;;
65552;SDS011;52465;51.560;14.368;2023-06-22T05:22:43;6.30;;;5.80;;
65552;SDS011;52465;51.560;14.368;2023-06-22T05:25:10;6.72;;;6.22;;
65552;SDS011;52465;51.560;14.368;2023-06-22T05:27:37;6.75;;;6.25;;
65552;SDS011;52465;51.560;14.368;2023-06-22T05:30:08;6.82;;;6.22;;
65552;SDS011;52465;51.560;14.368;2023-06-22T05:32:35;6.63;;;6.03;;
65552;SDS011;52465;51.560;14.368;2023-06-22T05:35:04;6.25;;;5.75;;
65552;SDS011;52465;51.560;14.368;2023-06-22T05:37:31;7.15;;;6.55;;
65552;SDS011;52465;51.560;14.368;2023-06-22T05:39:57;6.40;;;5.90;;
65552;SDS011;52465;51.560;14.368;2023-06-22T05:42:23;6.90;;;6.40;;
65552;SDS011;52465;51.560;14.368;2023-06-22T05:44:52;6.63;;;6.13;;
65552;SDS011;52465;51.560;14.368;2023-06-22T05:47:19;7.05;;;6.40;;
65552;SDS011;52465;51.560;14.368;2023-06-22T05:49:52;6.70;;;6.20;;
65552;SDS011;52465;51.560;14.368;2023-06-22T05:52:18;6.72;;;6.20;;
65552;SDS011;52465;51.560;14.368;2023-06-22T05:54:44;6.85;;;6.35;;
65552;SDS011;52465;51.560;14.368;2023-06-22T05:57:10;6.38;;;5.88;;
65552;SDS011;52465;51.560;14.368;2023-06-22T05:59:36;6.55;;;6.05;;
65552;SDS011;52465;51.560;14.368;2023-06-22T06:02:02;6.57;;;6.07;;
65552;SDS011;52465;51.560;14.368;2023-06-22T06:04:28;6.57;;;6.05;;
65552;SDS011;52465;51.560;14.368;2023-06-22T06:06:54;7.18;;;6.57;;
65552;SDS011;52465;51.560;14.368;2023-06-22T06:09:20;6.95;;;6.35;;
65552;SDS011;52465;51.560;14.368;2023-06-22T06:11:46;7.18;;;6.57;;
65552;SDS011;52465;51.560;14.368;2023-06-22T06:14:12;7.10;;;6.50;;
65552;SDS011;52465;51.560;14.368;2023-06-22T06:16:38;7.15;;;6.55;;
65552;SDS011;52465;51.560;14.368;2023-06-22T06:19:04;6.85;;;6.30;;
65552;SDS011;52465;51.560;14.368;2023-06-22T06:21:31;7.05;;;6.45;;
65552;SDS011;52465;51.560;14.368;2023-06-22T06:23:57;6.50;;;6.00;;
65552;SDS011;52465;51.560;14.368;2023-06-22T06:26:24;6.82;;;6.25;;
65552;SDS011;52465;51.560;14.368;2023-06-22T06:28:55;7.15;;;6.55;;
65552;SDS011;52465;51.560;14.368;2023-06-22T06:31:23;6.85;;;6.35;;
65552;SDS011;52465;51.560;14.368;2023-06-22T06:33:49;6.70;;;6.20;;
65552;SDS011;52465;51.560;14.368;2023-06-22T06:36:15;6.88;;;6.28;;
65552;SDS011;52465;51.560;14.368;2023-06-22T06:38:42;6.75;;;6.20;;
65552;SDS011;52465;51.560;14.368;2023-06-22T06:41:08;6.65;;;6.15;;
65552;SDS011;52465;51.560;14.368;2023-06-22T06:43:34;7.85;;;7.15;;
65552;SDS011;52465;51.560;14.368;2023-06-22T06:46:00;6.75;;;6.25;;
65552;SDS011;52465;51.560;14.368;2023-06-22T06:48:28;6.38;;;5.88;;
65552;SDS011;52465;51.560;14.368;2023-06-22T06:50:57;6.93;;;6.35;;
65552;SDS011;52465;51.560;14.368;2023-06-22T06:53:23;7.88;;;7.18;;
65552;SDS011;52465;51.560;14.368;2023-06-22T06:55:50;7.63;;;7.03;;
65552;SDS011;52465;51.560;14.368;2023-06-22T06:58:17;7.53;;;6.82;;
65552;SDS011;52465;51.560;14.368;2023-06-22T07:00:43;6.95;;;6.32;;
65552;SDS011;52465;51.560;14.368;2023-06-22T07:03:09;7.47;;;6.82;;
65552;SDS011;52465;51.560;14.368;2023-06-22T07:05:35;7.90;;;7.28;;
65552;SDS011;52465;51.560;14.368;2023-06-22T07:08:01;7.50;;;6.90;;
65552;SDS011;52465;51.560;14.368;2023-06-22T07:10:28;8.02;;;7.22;;
65552;SDS011;52465;51.560;14.368;2023-06-22T07:12:55;8.00;;;7.30;;
65552;SDS011;52465;51.560;14.368;2023-06-22T07:15:22;7.88;;;7.07;;
65552;SDS011;52465;51.560;14.368;2023-06-22T07:17:48;8.02;;;7.32;;
65552;SDS011;52465;51.560;14.368;2023-06-22T07:20:14;7.68;;;6.97;;
65552;SDS011;52465;51.560;14.368;2023-06-22T07:22:41;7.95;;;7.25;;
65552;SDS011;52465;51.560;14.368;2023-06-22T07:25:08;8.20;;;7.40;;
65552;SDS011;52465;51.560;14.368;2023-06-22T07:27:38;7.72;;;7.03;;
65552;SDS011;52465;51.560;14.368;2023-06-22T07:30:15;8.05;;;7.35;;
65552;SDS011;52465;51.560;14.368;2023-06-22T07:32:43;8.40;;;7.53;;
65552;SDS011;52465;51.560;14.368;2023-06-22T07:35:09;8.07;;;7.38;;
65552;SDS011;52465;51.560;14.368;2023-06-22T07:37:36;7.60;;;6.90;;
65552;SDS011;52465;51.560;14.368;2023-06-22T07:40:02;7.88;;;7.18;;
65552;SDS011;52465;51.560;14.368;2023-06-22T07:42:32;7.80;;;7.10;;
65552;SDS011;52465;51.560;14.368;2023-06-22T07:45:10;7.93;;;7.22;;
65552;SDS011;52465;51.560;14.368;2023-06-22T07:47:37;7.95;;;7.25;;
65552;SDS011;52465;51.560;14.368;2023-06-22T07:50:03;8.80;;;8.00;;
65552;SDS011;52465;51.560;14.368;2023-06-22T07:52:31;8.13;;;7.43;;
65552;SDS011;52465;51.560;14.368;2023-06-22T07:55:52;8.07;;;7.38;;
65552;SDS011;52465;51.560;14.368;2023-06-22T07:58:18;8.70;;;7.80;;
65552;SDS011;52465;51.560;14.368;2023-06-22T08:00:46;8.45;;;7.38;;
65552;SDS011;52465;51.560;14.368;2023-06-22T08:03:12;7.72;;;7.03;;
65552;SDS011;52465;51.560;14.368;2023-06-22T08:05:39;8.57;;;7.78;;
65552;SDS011;52465;51.560;14.368;2023-06-22T08:08:05;7.78;;;7.18;;
65552;SDS011;52465;51.560;14.368;2023-06-22T08:10:31;7.95;;;7.15;;
65552;SDS011;52465;51.560;14.368;2023-06-22T08:12:57;8.48;;;7.75;;
65552;SDS011;52465;51.560;14.368;2023-06-22T08:15:23;9.00;;;8.10;;
65552;SDS011;52465;51.560;14.368;2023-06-22T08:17:49;8.60;;;7.80;;
65552;SDS011;52465;51.560;14.368;2023-06-22T08:20:16;8.20;;;7.40;;
65552;SDS011;52465;51.560;14.368;2023-06-22T08:22:42;8.15;;;7.45;;
65552;SDS011;52465;51.560;14.368;2023-06-22T08:25:09;8.30;;;7.50;;
65552;SDS011;52465;51.560;14.368;2023-06-22T08:27:36;8.07;;;7.30;;
65552;SDS011;52465;51.560;14.368;2023-06-22T08:30:03;9.93;;;8.93;;
65552;SDS011;52465;51.560;14.368;2023-06-22T08:32:30;10.48;;;9.50;;
65552;SDS011;52465;51.560;14.368;2023-06-22T08:34:58;10.50;;;9.40;;
65552;SDS011;52465;51.560;14.368;2023-06-22T08:37:25;10.10;;;9.10;;
65552;SDS011;52465;51.560;14.368;2023-06-22T08:39:56;9.95;;;9.05;;
65552;SDS011;52465;51.560;14.368;2023-06-22T08:42:24;9.63;;;8.73;;
65552;SDS011;52465;51.560;14.368;2023-06-22T08:44:51;11.13;;;9.10;;
65552;SDS011;52465;51.560;14.368;2023-06-22T08:47:17;9.63;;;8.68;;
65552;SDS011;52465;51.560;14.368;2023-06-22T08:49:43;9.63;;;8.70;;
65552;SDS011;52465;51.560;14.368;2023-06-22T08:52:10;9.52;;;8.60;;
65552;SDS011;52465;51.560;14.368;2023-06-22T08:54:37;9.20;;;8.40;;
65552;SDS011;52465;51.560;14.368;2023-06-22T08:57:03;9.85;;;8.85;;
65552;SDS011;52465;51.560;14.368;2023-06-22T08:59:29;9.38;;;8.50;;
65552;SDS011;52465;51.560;14.368;2023-06-22T09:01:55;9.48;;;8.57;;
65552;SDS011;52465;51.560;14.368;2023-06-22T09:04:24;9.07;;;8.27;;
65552;SDS011;52465;51.560;14.368;2023-06-22T09:06:50;9.40;;;8.60;;
65552;SDS011;52465;51.560;14.368;2023-06-22T09:09:18;9.30;;;8.45;;
65552;SDS011;52465;51.560;14.368;2023-06-22T09:11:44;9.48;;;8.60;;
65552;SDS011;52465;51.560;14.368;2023-06-22T09:14:11;8.77;;;7.88;;
65552;SDS011;52465;51.560;14.368;2023-06-22T09:16:37;9.50;;;8.60;;
65552;SDS011;52465;51.560;14.368;2023-06-22T09:19:02;8.52;;;7.70;;
65552;SDS011;52465;51.560;14.368;2023-06-22T09:21:28;9.18;;;8.27;;
65552;SDS011;52465;51.560;14.368;2023-06-22T09:23:54;10.35;;;7.97;;
65552;SDS011;52465;51.560;14.368;2023-06-22T09:26:27;8.35;;;7.40;;
65552;SDS011;52465;51.560;14.368;2023-06-22T09:28:53;8.25;;;7.50;;
65552;SDS011;52465;51.560;14.368;2023-06-22T09:31:19;8.25;;;7.55;;
65552;SDS011;52465;51.560;14.368;2023-06-22T09:33:53;8.90;;;7.93;;
65552;SDS011;52465;51.560;14.368;2023-06-22T09:36:22;7.80;;;7.10;;
65552;SDS011;52465;51.560;14.368;2023-06-22T09:39:30;8.30;;;7.40;;
65552;SDS011;52465;51.560;14.368;2023-06-22T09:41:57;7.82;;;7.13;;
65552;SDS011;52465;51.560;14.368;2023-06-22T09:44:25;7.30;;;6.70;;
65552;SDS011;52465;51.560;14.368;2023-06-22T09:46:50;8.10;;;7.38;;
65552;SDS011;52465;51.560;14.368;2023-06-22T09:49:17;8.10;;;7.30;;
65552;SDS011;52465;51.560;14.368;2023-06-22T09:51:43;8.05;;;7.25;;
65552;SDS011;52465;51.560;14.368;2023-06-22T09:54:09;7.90;;;7.20;;
65552;SDS011;52465;51.560;14.368;2023-06-22T09:56:35;7.78;;;7.07;;
65552;SDS011;52465;51.560;14.368;2023-06-22T09:59:01;7.93;;;7.22;;
65552;SDS011;52465;51.560;14.368;2023-06-22T10:01:45;8.20;;;6.97;;
65552;SDS011;52465;51.560;14.368;2023-06-22T10:04:11;8.18;;;7.38;;
65552;SDS011;52465;51.560;14.368;2023-06-22T10:06:41;8.02;;;7.03;;
65552;SDS011;52465;51.560;14.368;2023-06-22T10:09:07;7.85;;;7.15;;
65552;SDS011;52465;51.560;14.368;2023-06-22T10:11:34;7.45;;;6.85;;
65552;SDS011;52465;51.560;14.368;2023-06-22T10:14:01;7.32;;;6.72;;
65552;SDS011;52465;51.560;14.368;2023-06-22T10:16:31;7.57;;;6.88;;
65552;SDS011;52465;51.560;14.368;2023-06-22T10:19:39;7.07;;;6.43;;
65552;SDS011;52465;51.560;14.368;2023-06-22T10:22:07;7.80;;;7.10;;
65552;SDS011;52465;51.560;14.368;2023-06-22T10:24:33;7.28;;;6.68;;
65552;SDS011;52465;51.560;14.368;2023-06-22T10:26:58;7.97;;;7.28;;
65552;SDS011;52465;51.560;14.368;2023-06-22T10:29:24;7.22;;;6.53;;
65552;SDS011;52465;51.560;14.368;2023-06-22T10:31:50;7.70;;;6.90;;
65552;SDS011;52465;51.560;14.368;2023-06-22T10:34:16;7.43;;;6.72;;
65552;SDS011;52465;51.560;14.368;2023-06-22T10:36:42;7.22;;;6.63;;
65552;SDS011;52465;51.560;14.368;2023-06-22T10:39:10;7.05;;;6.45;;
65552;SDS011;52465;51.560;14.368;2023-06-22T10:41:36;7.88;;;7.18;;
65552;SDS011;52465;51.560;14.368;2023-06-22T10:44:02;7.60;;;6.80;;
65552;SDS011;52465;51.560;14.368;2023-06-22T10:46:28;7.45;;;6.75;;
65552;SDS011;52465;51.560;14.368;2023-06-22T10:48:54;7.50;;;6.80;;
65552;SDS011;52465;51.560;14.368;2023-06-22T10:51:22;7.30;;;6.70;;
65552;SDS011;52465;51.560;14.368;2023-06-22T10:53:48;6.93;;;6.30;;
65552;SDS011;52465;51.560;14.368;2023-06-22T10:56:14;6.85;;;6.22;;
65552;SDS011;52465;51.560;14.368;2023-06-22T10:58:40;7.40;;;6.70;;
65552;SDS011;52465;51.560;14.368;2023-06-22T11:01:06;7.05;;;6.45;;
65552;SDS011;52465;51.560;14.368;2023-06-22T11:03:32;7.00;;;6.40;;
65552;SDS011;52465;51.560;14.368;2023-06-22T11:05:58;7.47;;;6.80;;
65552;SDS011;52465;51.560;14.368;2023-06-22T11:08:44;7.50;;;6.80;;
65552;SDS011;52465;51.560;14.368;2023-06-22T11:11:29;7.15;;;6.53;;
65552;SDS011;52465;51.560;14.368;2023-06-22T11:13:55;7.05;;;6.45;;
65552;SDS011;52465;51.560;14.368;2023-06-22T11:16:22;7.05;;;6.45;;
65552;SDS011;52465;51.560;14.368;2023-06-22T11:18:50;6.70;;;6.10;;
65552;SDS011;52465;51.560;14.368;2023-06-22T11:21:16;7.15;;;6.45;;
65552;SDS011;52465;51.560;14.368;2023-06-22T11:23:44;7.47;;;6.70;;
65552;SDS011;52465;51.560;14.368;2023-06-22T11:26:10;7.15;;;6.55;;
65552;SDS011;52465;51.560;14.368;2023-06-22T11:28:36;7.30;;;6.65;;
65552;SDS011;52465;51.560;14.368;2023-06-22T11:31:02;7.20;;;6.57;;
65552;SDS011;52465;51.560;14.368;2023-06-22T11:33:48;7.22;;;6.63;;
65552;SDS011;52465;51.560;14.368;2023-06-22T11:36:15;7.13;;;6.53;;
65552;SDS011;52465;51.560;14.368;2023-06-22T11:41:30;8.02;;;7.28;;
65552;SDS011;52465;51.560;14.368;2023-06-22T11:43:56;8.45;;;7.65;;
65552;SDS011;52465;51.560;14.368;2023-06-22T11:46:22;8.63;;;7.82;;
65552;SDS011;52465;51.560;14.368;2023-06-22T11:48:49;9.60;;;8.70;;
65552;SDS011;52465;51.560;14.368;2023-06-22T11:51:15;8.60;;;7.80;;
65552;SDS011;52465;51.560;14.368;2023-06-22T11:53:41;9.15;;;8.27;;
65552;SDS011;52465;51.560;14.368;2023-06-22T11:56:07;8.80;;;7.40;;
65552;SDS011;52465;51.560;14.368;2023-06-22T11:58:35;8.05;;;6.97;;
65552;SDS011;52465;51.560;14.368;2023-06-22T12:01:01;9.35;;;8.38;;
65552;SDS011;52465;51.560;14.368;2023-06-22T12:03:27;8.45;;;7.63;;
65552;SDS011;52465;51.560;14.368;2023-06-22T12:05:54;8.50;;;7.70;;
65552;SDS011;52465;51.560;14.368;2023-06-22T12:08:20;8.75;;;7.95;;
65552;SDS011;52465;51.560;14.368;2023-06-22T12:10:49;8.95;;;8.05;;
65552;SDS011;52465;51.560;14.368;2023-06-22T12:13:17;8.15;;;7.35;;
65552;SDS011;52465;51.560;14.368;2023-06-22T12:15:43;8.57;;;7.78;;
65552;SDS011;52465;51.560;14.368;2023-06-22T12:18:09;8.25;;;7.45;;
65552;SDS011;52465;51.560;14.368;2023-06-22T12:20:36;8.57;;;7.78;;
65552;SDS011;52465;51.560;14.368;2023-06-22T12:23:03;8.60;;;7.80;;
65552;SDS011;52465;51.560;14.368;2023-06-22T12:25:29;8.57;;;7.50;;
65552;SDS011;52465;51.560;14.368;2023-06-22T12:27:55;7.75;;;7.05;;
65552;SDS011;52465;51.560;14.368;2023-06-22T12:30:21;8.55;;;7.75;;
65552;SDS011;52465;51.560;14.368;2023-06-22T12:32:48;7.85;;;7.05;;
65552;SDS011;52465;51.560;14.368;2023-06-22T12:35:16;8.35;;;7.55;;
65552;SDS011;52465;51.560;14.368;2023-06-22T12:37:42;8.40;;;7.50;;
65552;SDS011;52465;51.560;14.368;2023-06-22T12:40:09;7.85;;;7.13;;
65552;SDS011;52465;51.560;14.368;2023-06-22T12:42:35;7.57;;;6.88;;
65552;SDS011;52465;51.560;14.368;2023-06-22T12:45:01;7.63;;;6.93;;
65552;SDS011;52465;51.560;14.368;2023-06-22T12:47:28;7.88;;;7.18;;
65552;SDS011;52465;51.560;14.368;2023-06-22T12:49:54;9.25;;;7.78;;
65552;SDS011;52465;51.560;14.368;2023-06-22T12:52:20;7.18;;;6.47;;
65552;SDS011;52465;51.560;14.368;2023-06-22T12:54:46;7.72;;;6.82;;
65552;SDS011;52465;51.560;14.368;2023-06-22T12:57:21;7.90;;;7.10;;
65552;SDS011;52465;51.560;14.368;2023-06-22T12:59:47;7.68;;;6.95;;
65552;SDS011;52465;51.560;14.368;2023-06-22T13:02:14;7.38;;;6.75;;
65552;SDS011;52465;51.560;14.368;2023-06-22T13:04:40;7.82;;;7.03;;
65552;SDS011;52465;51.560;14.368;2023-06-22T13:07:07;7.38;;;6.68;;
65552;SDS011;52465;51.560;14.368;2023-06-22T13:09:48;7.35;;;6.65;;
65552;SDS011;52465;51.560;14.368;2023-06-22T13:12:17;8.30;;;7.50;;
65552;SDS011;52465;51.560;14.368;2023-06-22T13:14:43;7.25;;;6.65;;
65552;SDS011;52465;51.560;14.368;2023-06-22T13:17:09;7.40;;;6.70;;
65552;SDS011;52465;51.560;14.368;2023-06-22T13:19:35;7.70;;;7.00;;
65552;SDS011;52465;51.560;14.368;2023-06-22T13:22:01;7.70;;;6.97;;
65552;SDS011;52465;51.560;14.368;2023-06-22T13:24:29;7.13;;;6.53;;
65552;SDS011;52465;51.560;14.368;2023-06-22T13:26:55;7.50;;;6.80;;
65552;SDS011;52465;51.560;14.368;2023-06-22T13:29:21;7.40;;;6.70;;
65552;SDS011;52465;51.560;14.368;2023-06-22T13:31:47;7.32;;;6.72;;
65552;SDS011;52465;51.560;14.368;2023-06-22T13:34:13;7.57;;;6.88;;
65552;SDS011;52465;51.560;14.368;2023-06-22T13:36:39;7.30;;;6.70;;
65552;SDS011;52465;51.560;14.368;2023-06-22T13:39:05;7.43;;;6.82;;
65552;SDS011;52465;51.560;14.368;2023-06-22T13:41:31;7.47;;;6.82;;
65552;SDS011;52465;51.560;14.368;2023-06-22T13:43:58;7.85;;;7.15;;
65552;SDS011;52465;51.560;14.368;2023-06-22T13:46:24;7.82;;;7.03;;
65552;SDS011;52465;51.560;14.368;2023-06-22T13:48:50;7.18;;;6.57;;
65552;SDS011;52465;51.560;14.368;2023-06-22T13:51:16;7.85;;;7.05;;
65552;SDS011;52465;51.560;14.368;2023-06-22T13:53:42;7.57;;;6.90;;
65552;SDS011;52465;51.560;14.368;2023-06-22T13:56:08;7.13;;;6.53;;
65552;SDS011;52465;51.560;14.368;2023-06-22T13:58:35;7.70;;;7.00;;
65552;SDS011;52465;51.560;14.368;2023-06-22T14:01:02;7.35;;;6.68;;
65552;SDS011;52465;51.560;14.368;2023-06-22T14:03:27;7.90;;;7.20;;
65552;SDS011;52465;51.560;14.368;2023-06-22T14:05:53;7.30;;;6.70;;
65552;SDS011;52465;51.560;14.368;2023-06-22T14:08:21;7.65;;;6.95;;
65552;SDS011;52465;51.560;14.368;2023-06-22T14:11:56;7.53;;;6.88;;
65552;SDS011;52465;51.560;14.368;2023-06-22T14:14:22;7.70;;;7.00;;
65552;SDS011;52465;51.560;14.368;2023-06-22T14:16:48;7.32;;;6.72;;
65552;SDS011;52465;51.560;14.368;2023-06-22T14:19:18;7.30;;;6.70;;
65552;SDS011;52465;51.560;14.368;2023-06-22T14:22:55;7.60;;;6.95;;
65552;SDS011;52465;51.560;14.368;2023-06-22T14:25:21;8.38;;;7.57;;
65552;SDS011;52465;51.560;14.368;2023-06-22T14:27:47;7.03;;;6.43;;
65552;SDS011;52465;51.560;14.368;2023-06-22T14:30:48;7.60;;;6.90;;
65552;SDS011;52465;51.560;14.368;2023-06-22T14:33:14;7.90;;;7.10;;
65552;SDS011;52465;51.560;14.368;2023-06-22T14:35:40;7.97;;;7.28;;
65552;SDS011;52465;51.560;14.368;2023-06-22T14:38:06;7.45;;;6.75;;
65552;SDS011;52465;51.560;14.368;2023-06-22T14:40:32;7.43;;;6.80;;
65552;SDS011;52465;51.560;14.368;2023-06-22T14:43:19;7.03;;;6.32;;
65552;SDS011;52465;51.560;14.368;2023-06-22T14:45:45;7.72;;;7.03;;
65552;SDS011;52465;51.560;14.368;2023-06-22T14:48:11;7.72;;;7.03;;
65552;SDS011;52465;51.560;14.368;2023-06-22T14:50:37;7.78;;;7.07;;
65552;SDS011;52465;51.560;14.368;2023-06-22T14:53:03;7.70;;;7.07;;
65552;SDS011;52465;51.560;14.368;2023-06-22T14:55:30;8.05;;;6.53;;
65552;SDS011;52465;51.560;14.368;2023-06-22T14:57:56;7.30;;;6.68;;